CYUY

Rouyn-Noranda Airport

Rouyn-Noranda, , Canada
METAR CYUY 161400Z 33009KT 15SM IC FEW100 FEW240 M22/M25 A2990 RMK AC1CI1 AC TR CI TR PRESRR SLP158
Observed Flight Rules
Dec-16 @ 14:00 UTC (51 minutes ago) Visual Flight Rules
Wind Visibility Clouds Conditions
330° at 9 knots 15 miles
  • Few at 10,000' AGL
  • Few at 24,000' AGL
  • Ice crystals
Temperatures Readings
Current -22°C / -8°F
Dewpoint -25°C / -13°F
Humidity 77%
Altimeter 29.9" Hg
Pressure 1015.8 hPa
Elevation 301
METAR CYUY 161400Z 33009KT 15SM IC FEW100 FEW240 M22/M25 A2990 RMK AC1CI1 AC TR CI TR PRESRR SLP158
Observed Flight Rules
Dec-16 @ 14:00 UTC
(51 minutes ago)
VFR
Wind Visibility
330° at 9 knots 15 miles
Clouds
  • Few at 10,000' AGL
  • Few at 24,000' AGL
Conditions
  • Ice crystals
Temperature Dewpoint
-22°C / -8°F -25°C / -13°F
Humidity Altimeter Pressure
77% 29.9" Hg 1015.8 hPa